Rorichmoor — V2BV7 — position and weather

sailwx.info

Track history (hours):
 
Tides and Currents Weather Stations Pressure Air Temp Water Temp Dewpoint Dewpoint Depression Visibility Wind Speed Wind Dir Waves Ship Positions

Rorichmoor

Last reported at 2015-Sep-04 12:33 UTC. Time now 2015-Sep-05 05:42 UTC.
Position N 43°17' E 004°59'.

Length 80 m; draft 4.4 m.

Type: Cargo ship. MMSI: 304938000.

Date/timePositionNaut miles runAvg speedWind from/ knotsBaromVisibWave heightAir tempDewpointWater temp
2015-Sep-04 12:33N 43°17' E 004°59'8 8.0
2015-Sep-04 11:33N 43°23' E 004°53'3 3.3
2015-Sep-04 10:33N 43°23' E 004°48'6 0.1
2015-Sep-02 08:17N 43°28' E 004°45'6 5.1
2015-Sep-02 07:09N 43°23' E 004°49'1 1.1
2015-Sep-02 06:33N 43°23' E 004°49'7 6.9
2015-Sep-02 05:33N 43°21' E 004°58'7 7.0
2015-Sep-02 04:32N 43°14' E 005°02'374 8.3
2015-Aug-31 07:24N 40°07' E 012°15'17 9.0
2015-Aug-31 05:33N 39°58' E 012°33'46 9.1
2015-Aug-31 00:31N 39°34' E 013°24'9 9.3
2015-Aug-30 23:33N 39°30' E 013°34'9 9.2
2015-Aug-30 22:33N 39°25' E 013°44'91 9.1
2015-Aug-30 12:31N 38°35' E 015°22'10 8.7
2015-Aug-30 11:21N 38°27' E 015°31'7 8.7
2015-Aug-30 10:32N 38°22' E 015°37'8 7.6
2015-Aug-30 09:33N 38°16' E 015°41'6 5.7
2015-Aug-30 08:33N 38°11' E 015°37'9 9.0
2015-Aug-30 07:33N 38°03' E 015°36'  
2015-Aug-25 18:28N 37°49' E 015°50'10 9.1
2015-Aug-25 17:21N 37°50' E 015°37'8 9.8
2015-Aug-25 16:31N 37°58' E 015°33'9 9.5
2015-Aug-25 15:33N 38°07' E 015°34'9 8.5
2015-Aug-25 14:34N 38°15' E 015°38'8 7.7
2015-Aug-25 13:33N 38°23' E 015°37'  
Track history (hours):
 
Tides and Currents Weather Stations Pressure Air Temp Water Temp Dewpoint Dewpoint Depression Visibility Wind Speed Wind Dir Waves Ship Positions

Rorichmoor

Last reported at 2015-Sep-04 12:33 UTC. Time now 2015-Sep-05 05:42 UTC.
Position N 43°17' E 004°59'.

Length 80 m; draft 4.4 m.

Type: Cargo ship. MMSI: 304938000.

Date/timePositionNaut miles runAvg speedWind from/ knotsBaromVisibWave heightAir tempDewpointWater temp
2015-Sep-04 12:33N 43°17' E 004°59'8 8.0
2015-Sep-04 11:33N 43°23' E 004°53'3 3.3
2015-Sep-04 10:33N 43°23' E 004°48'6 0.1
2015-Sep-02 08:17N 43°28' E 004°45'6 5.1
2015-Sep-02 07:09N 43°23' E 004°49'1 1.1
2015-Sep-02 06:33N 43°23' E 004°49'7 6.9
2015-Sep-02 05:33N 43°21' E 004°58'7 7.0
2015-Sep-02 04:32N 43°14' E 005°02'374 8.3
2015-Aug-31 07:24N 40°07' E 012°15'17 9.0
2015-Aug-31 05:33N 39°58' E 012°33'46 9.1
2015-Aug-31 00:31N 39°34' E 013°24'9 9.3
2015-Aug-30 23:33N 39°30' E 013°34'9 9.2
2015-Aug-30 22:33N 39°25' E 013°44'91 9.1
2015-Aug-30 12:31N 38°35' E 015°22'10 8.7
2015-Aug-30 11:21N 38°27' E 015°31'7 8.7
2015-Aug-30 10:32N 38°22' E 015°37'8 7.6
2015-Aug-30 09:33N 38°16' E 015°41'6 5.7
2015-Aug-30 08:33N 38°11' E 015°37'9 9.0
2015-Aug-30 07:33N 38°03' E 015°36'  
2015-Aug-25 18:28N 37°49' E 015°50'10 9.1
2015-Aug-25 17:21N 37°50' E 015°37'8 9.8
2015-Aug-25 16:31N 37°58' E 015°33'9 9.5
2015-Aug-25 15:33N 38°07' E 015°34'9 8.5
2015-Aug-25 14:34N 38°15' E 015°38'8 7.7
2015-Aug-25 13:33N 38°23' E 015°37'  

Dump ship's entire track history